Time;durP1;ratioP1;P1;durP2;ratioP2;P2;SDS_P1;SDS_P2;PMS_P1;PMS_P2;Temp;Humidity;BMP_temperature;BMP_pressure;BME280_temperature;BME280_humidity;BME280_pressure;Samples;Min_cycle;Max_cycle;Signal;HPM_P1;HPM_P2
2022/10/19 00:01:13;;;;;;;1.30;0.83;;;15.80;99.90;;;;;;5037956;28;20448;-74
2022/10/19 00:03:41;;;;;;;2.23;1.07;;;15.80;99.90;;;;;;5035652;28;20452;-72
2022/10/19 00:06:14;;;;;;;3.40;1.10;;;15.70;99.90;;;;;;5037921;28;20453;-72
2022/10/19 00:08:42;;;;;;;2.40;1.00;;;15.70;99.90;;;;;;5035046;28;20463;-72
2022/10/19 00:11:09;;;;;;;1.70;1.10;;;15.70;99.90;;;;;;5037992;28;20478;-73
2022/10/19 00:13:37;;;;;;;2.10;1.20;;;15.70;99.90;;;;;;5035214;28;20492;-73
2022/10/19 00:16:08;;;;;;;1.80;1.00;;;15.70;99.90;;;;;;5037272;28;20444;-73
2022/10/19 00:18:35;;;;;;;1.90;1.00;;;15.50;99.90;;;;;;5036755;28;20510;-72
2022/10/19 00:21:04;;;;;;;6.27;1.00;;;15.50;99.90;;;;;;5035169;28;20452;-72
2022/10/19 00:23:33;;;;;;;6.43;1.17;;;15.50;99.90;;;;;;5032334;28;20622;-73
2022/10/19 00:26:00;;;;;;;1.97;1.20;;;15.50;99.90;;;;;;5036622;28;20447;-73
2022/10/19 00:28:28;;;;;;;1.73;1.20;;;15.50;99.90;;;;;;5033416;28;20518;-74
2022/10/19 00:30:55;;;;;;;1.30;0.80;;;15.50;99.90;;;;;;5036581;28;20887;-73
2022/10/19 00:33:22;;;;;;;2.63;1.17;;;15.40;99.90;;;;;;5035987;28;20440;-73
2022/10/19 00:35:49;;;;;;;2.37;1.00;;;15.40;99.90;;;;;;5037334;28;20510;-74
2022/10/19 00:38:17;;;;;;;1.47;1.03;;;15.40;99.90;;;;;;5037479;28;20452;-74
2022/10/19 00:40:46;;;;;;;2.07;0.90;;;15.30;99.90;;;;;;5037111;28;20456;-73
2022/10/19 00:43:15;;;;;;;1.60;0.90;;;15.20;99.90;;;;;;5033240;28;20506;-74
2022/10/19 00:45:42;;;;;;;1.47;0.90;;;15.20;99.90;;;;;;5036578;28;20437;-74
2022/10/19 00:48:11;;;;;;;2.03;0.87;;;15.30;99.90;;;;;;5035985;28;20814;-73
2022/10/19 00:50:38;;;;;;;2.23;1.60;;;15.40;99.90;;;;;;5036741;28;20448;-74
2022/10/19 00:53:05;;;;;;;1.27;0.90;;;15.40;99.90;;;;;;5035135;28;20441;-74
2022/10/19 00:55:33;;;;;;;1.73;1.00;;;15.40;99.90;;;;;;5036603;28;20484;-74
2022/10/19 00:58:03;;;;;;;1.53;1.00;;;15.40;99.90;;;;;;5036806;28;20733;-74
2022/10/19 01:00:30;;;;;;;1.30;0.90;;;15.40;99.90;;;;;;5036726;28;20854;-73
2022/10/19 01:02:57;;;;;;;1.47;0.80;;;15.50;99.90;;;;;;5036496;28;20814;-73
2022/10/19 01:05:25;;;;;;;2.77;1.00;;;15.50;99.90;;;;;;5034809;28;20896;-73
2022/10/19 01:07:52;;;;;;;2.63;1.40;;;15.50;99.90;;;;;;5036252;28;20449;-73
2022/10/19 01:10:23;;;;;;;2.60;1.00;;;15.50;99.90;;;;;;5037363;28;20464;-73
2022/10/19 01:13:02;;;;;;;2.53;1.20;;;15.50;99.90;;;;;;5037266;28;20451;-73
2022/10/19 01:15:40;;;;;;;1.83;1.00;;;15.60;99.90;;;;;;5038150;28;20549;-74
2022/10/19 01:18:19;;;;;;;1.53;1.07;;;15.50;99.90;;;;;;5038344;28;20456;-74
2022/10/19 01:21:19;;;;;;;2.93;1.13;;;15.60;99.90;;;;;;5038648;28;20526;-73
2022/10/19 01:24:28;;;;;;;1.80;1.10;;;15.60;99.90;;;;;;5036446;28;20562;-74
2022/10/19 01:27:35;;;;;;;2.20;1.33;;;15.60;99.90;;;;;;5037677;28;20533;-74
2022/10/19 01:30:17;;;;;;;1.60;1.10;;;15.60;99.90;;;;;;5034389;28;20947;-74
2022/10/19 01:33:17;;;;;;;2.97;1.10;;;15.60;99.90;;;;;;5036943;28;20480;-74
2022/10/19 01:35:50;;;;;;;2.20;1.43;;;15.50;99.90;;;;;;5033307;28;20541;-75
2022/10/19 01:38:24;;;;;;;3.87;1.27;;;15.60;99.90;;;;;;5033375;28;20452;-74
2022/10/19 01:40:58;;;;;;;3.30;1.10;;;15.70;99.90;;;;;;5036420;28;20961;-74
2022/10/19 01:43:36;;;;;;;2.83;1.20;;;15.70;99.90;;;;;;5033646;28;20586;-75
2022/10/19 01:46:13;;;;;;;1.97;1.37;;;15.80;99.90;;;;;;5036730;28;20804;-73
2022/10/19 01:48:42;;;;;;;5.30;1.53;;;15.80;99.90;;;;;;5036487;28;20460;-74
2022/10/19 01:51:14;;;;;;;4.33;1.50;;;15.70;99.90;;;;;;5035294;28;20502;-74
2022/10/19 01:53:44;;;;;;;2.73;1.40;;;15.70;99.90;;;;;;5031225;28;20531;-73
2022/10/19 01:56:12;;;;;;;1.67;1.20;;;15.70;99.90;;;;;;5034792;28;20522;-74
2022/10/19 01:58:43;;;;;;;3.67;2.13;;;15.70;99.90;;;;;;5032792;28;20460;-74
2022/10/19 02:01:16;;;;;;;6.23;2.50;;;15.60;99.90;;;;;;5038899;28;20477;-73
2022/10/19 02:03:44;;;;;;;3.20;1.60;;;15.50;99.90;;;;;;5038372;28;20460;-74
2022/10/19 02:06:13;;;;;;;3.17;2.17;;;15.50;99.90;;;;;;5040006;28;20452;-74
2022/10/19 02:08:45;;;;;;;6.47;2.90;;;15.40;99.90;;;;;;5040021;28;20463;-73
2022/10/19 02:11:12;;;;;;;6.60;2.50;;;15.30;99.90;;;;;;5039168;28;20487;-73
2022/10/19 02:13:42;;;;;;;8.13;3.57;;;15.30;99.90;;;;;;5036131;28;20483;-73
2022/10/19 02:16:16;;;;;;;5.67;2.30;;;15.40;99.90;;;;;;5040428;28;20872;-73
2022/10/19 02:18:47;;;;;;;8.20;3.43;;;15.40;99.90;;;;;;5038113;28;20444;-73
2022/10/19 02:21:14;;;;;;;8.03;2.70;;;15.40;99.90;;;;;;5039551;28;20498;-73
2022/10/19 02:23:41;;;;;;;4.97;1.90;;;15.40;99.90;;;;;;5038933;28;20451;-73
2022/10/19 02:26:08;;;;;;;6.50;2.67;;;15.50;99.90;;;;;;5038237;28;20933;-73
2022/10/19 02:28:36;;;;;;;6.77;3.20;;;15.60;99.90;;;;;;5035779;28;20980;-74
2022/10/19 02:31:03;;;;;;;8.93;3.53;;;15.70;99.90;;;;;;5039046;28;20806;-74
2022/10/19 02:33:32;;;;;;;9.63;2.27;;;15.60;99.90;;;;;;5035739;28;20513;-73
2022/10/19 02:36:00;;;;;;;12.00;3.33;;;15.50;99.90;;;;;;5038345;28;20487;-73
2022/10/19 02:38:28;;;;;;;8.23;4.60;;;15.40;99.90;;;;;;5037829;28;20467;-73
2022/10/19 02:41:02;;;;;;;5.47;3.00;;;15.30;99.90;;;;;;5038139;28;20459;-74
2022/10/19 02:43:32;;;;;;;7.83;3.57;;;15.30;99.90;;;;;;5037932;28;20459;-73
2022/10/19 02:46:03;;;;;;;7.77;3.33;;;15.30;99.90;;;;;;5037938;28;20448;-73
2022/10/19 02:48:34;;;;;;;8.33;4.00;;;15.30;99.90;;;;;;5034342;28;20518;-74
2022/10/19 02:51:01;;;;;;;6.20;2.63;;;15.30;99.90;;;;;;5039154;28;20448;-73
2022/10/19 02:53:28;;;;;;;10.37;3.50;;;15.20;99.90;;;;;;5035714;28;20460;-73
2022/10/19 02:55:55;;;;;;;12.47;3.50;;;15.30;99.90;;;;;;5038760;28;20488;-74
2022/10/19 02:58:22;;;;;;;11.90;5.30;;;15.30;99.90;;;;;;5035207;28;20448;-73
2022/10/19 03:00:49;;;;;;;13.57;4.00;;;15.30;99.90;;;;;;5039063;28;20506;-74
2022/10/19 03:03:16;;;;;;;16.47;5.30;;;15.30;99.90;;;;;;5035438;28;20456;-73
2022/10/19 03:05:44;;;;;;;14.17;6.50;;;15.30;99.90;;;;;;5038757;28;20448;-73
2022/10/19 03:08:11;;;;;;;9.33;4.60;;;15.20;99.90;;;;;;5038300;28;20448;-73
2022/10/19 03:10:38;;;;;;;10.73;4.27;;;15.20;99.90;;;;;;5035937;28;20448;-73
2022/10/19 03:13:05;;;;;;;7.73;3.67;;;15.10;99.90;;;;;;5035408;28;20504;-74
2022/10/19 03:15:32;;;;;;;9.30;4.10;;;15.10;99.90;;;;;;5037603;28;20488;-73
2022/10/19 03:17:59;;;;;;;12.37;4.90;;;15.10;99.90;;;;;;5038072;28;20513;-74
2022/10/19 03:20:26;;;;;;;14.07;4.33;;;15.20;99.90;;;;;;5035577;28;20467;-74
2022/10/19 03:22:55;;;;;;;7.70;3.80;;;15.20;99.90;;;;;;5037719;28;20510;-74
2022/10/19 03:25:21;;;;;;;10.67;5.20;;;15.30;99.90;;;;;;5038451;28;20502;-73
2022/10/19 03:27:48;;;;;;;11.50;3.70;;;15.40;99.90;;;;;;5038600;28;20452;-73
2022/10/19 03:30:15;;;;;;;10.27;4.40;;;15.40;99.90;;;;;;5034692;28;20464;-73
2022/10/19 03:32:42;;;;;;;8.90;4.43;;;15.50;99.90;;;;;;5038246;28;20510;-73
2022/10/19 03:35:09;;;;;;;8.20;3.80;;;15.60;99.90;;;;;;5037957;28;20524;-73
2022/10/19 03:37:36;;;;;;;7.03;4.30;;;15.60;99.90;;;;;;5037786;28;20494;-73
2022/10/19 03:40:06;;;;;;;13.30;3.47;;;15.60;99.90;;;;;;5035678;28;20554;-73
2022/10/19 03:42:32;;;;;;;10.80;3.60;;;15.50;99.90;;;;;;5037109;28;20502;-73
2022/10/19 03:44:59;;;;;;;8.13;3.17;;;15.50;99.90;;;;;;5034200;28;20460;-73
2022/10/19 03:47:26;;;;;;;7.43;3.47;;;15.40;99.90;;;;;;5037551;28;20448;-73
2022/10/19 03:49:53;;;;;;;8.20;3.70;;;15.40;99.90;;;;;;5035285;28;20543;-73
2022/10/19 03:52:20;;;;;;;8.93;3.23;;;15.30;99.90;;;;;;5036948;28;20456;-73
2022/10/19 03:54:50;;;;;;;10.20;3.60;;;15.40;99.90;;;;;;5032729;28;20773;-73
2022/10/19 03:57:18;;;;;;;6.33;3.17;;;15.40;99.90;;;;;;5035690;28;20924;-73
2022/10/19 03:59:45;;;;;;;7.60;3.80;;;15.40;99.90;;;;;;5033447;28;20502;-73
2022/10/19 04:02:12;;;;;;;5.40;2.53;;;15.40;99.90;;;;;;5036458;28;20456;-73
2022/10/19 04:04:39;;;;;;;7.53;3.93;;;15.30;99.90;;;;;;5033157;28;20464;-73
2022/10/19 04:07:06;;;;;;;6.33;2.07;;;15.30;99.90;;;;;;5035089;28;20433;-74
2022/10/19 04:09:33;;;;;;;11.83;3.30;;;15.40;99.90;;;;;;5034111;28;20514;-74
2022/10/19 04:12:00;;;;;;;9.43;5.10;;;15.50;99.90;;;;;;5036620;28;20507;-74
2022/10/19 04:14:28;;;;;;;8.80;4.10;;;15.50;99.90;;;;;;5033544;28;20542;-74
2022/10/19 04:16:55;;;;;;;8.77;3.73;;;15.50;99.90;;;;;;5036115;28;20510;-75
2022/10/19 04:19:22;;;;;;;6.47;4.13;;;15.50;99.90;;;;;;5033570;28;20538;-75
2022/10/19 04:21:49;;;;;;;10.80;4.10;;;15.50;99.90;;;;;;5035936;28;20490;-75
2022/10/19 04:24:18;;;;;;;8.37;4.53;;;15.50;99.90;;;;;;5032592;28;20530;-74
2022/10/19 04:26:46;;;;;;;5.60;2.67;;;15.40;99.90;;;;;;5035257;28;20444;-74
2022/10/19 04:29:14;;;;;;;8.13;3.27;;;15.40;99.90;;;;;;5032445;28;20951;-73
2022/10/19 04:31:43;;;;;;;5.67;3.10;;;15.50;99.90;;;;;;5034683;28;20533;-74
2022/10/19 04:34:10;;;;;;;6.20;4.40;;;15.50;99.90;;;;;;5033479;28;20456;-74
2022/10/19 04:36:37;;;;;;;7.63;3.70;;;15.50;99.90;;;;;;5035435;28;20569;-74
2022/10/19 04:39:04;;;;;;;6.70;4.37;;;15.50;99.90;;;;;;5033432;28;20518;-74
2022/10/19 04:41:32;;;;;;;8.50;3.77;;;15.50;99.90;;;;;;5036482;28;20814;-74
2022/10/19 04:44:01;;;;;;;10.90;4.93;;;15.50;99.90;;;;;;5033403;28;20456;-73
2022/10/19 04:46:29;;;;;;;8.90;4.00;;;15.40;99.90;;;;;;5036703;28;20506;-74
2022/10/19 04:48:59;;;;;;;5.20;3.43;;;15.40;99.90;;;;;;5034235;28;20452;-74
2022/10/19 04:51:26;;;;;;;7.17;4.40;;;15.40;99.90;;;;;;5037364;28;20455;-74
2022/10/19 04:53:55;;;;;;;7.57;3.07;;;15.50;99.90;;;;;;5034283;28;20892;-74
2022/10/19 04:56:26;;;;;;;7.20;3.80;;;15.50;99.90;;;;;;5037030;28;20575;-76
2022/10/19 04:58:56;;;;;;;7.00;3.73;;;15.50;99.90;;;;;;5040454;28;20492;-75
2022/10/19 05:01:27;;;;;;;6.40;3.70;;;15.50;99.90;;;;;;5040425;28;20880;-75
2022/10/19 05:03:55;;;;;;;7.77;4.97;;;15.50;99.90;;;;;;5036885;28;20445;-76
2022/10/19 05:06:25;;;;;;;7.50;4.03;;;15.50;99.90;;;;;;5040111;28;20768;-75
2022/10/19 05:08:54;;;;;;;8.10;4.17;;;15.40;99.90;;;;;;5036427;28;20463;-76
2022/10/19 05:11:21;;;;;;;8.40;4.40;;;15.40;99.90;;;;;;5037867;28;20448;-77
2022/10/19 05:13:49;;;;;;;10.10;4.60;;;15.50;99.90;;;;;;5032476;28;20788;-76
2022/10/19 05:16:19;;;;;;;10.10;4.50;;;15.40;99.90;;;;;;5037597;28;20476;-75
2022/10/19 05:18:48;;;;;;;8.40;6.27;;;15.40;99.90;;;;;;5035849;28;20464;-76
2022/10/19 05:21:16;;;;;;;9.60;6.20;;;15.40;99.90;;;;;;5037617;28;20459;-74
2022/10/19 05:23:44;;;;;;;7.63;4.93;;;15.40;99.90;;;;;;5042697;28;20487;-76
2022/10/19 05:26:14;;;;;;;7.90;3.27;;;15.40;99.90;;;;;;5039281;28;20456;-76
2022/10/19 05:28:41;;;;;;;7.67;4.80;;;15.40;99.90;;;;;;5038601;28;20757;-77
2022/10/19 05:31:11;;;;;;;9.80;5.00;;;15.50;99.90;;;;;;5036144;28;20892;-77
2022/10/19 05:33:39;;;;;;;11.27;5.17;;;15.50;99.90;;;;;;5041714;28;20518;-76
2022/10/19 05:36:17;;;;;;;7.07;5.00;;;15.60;99.90;;;;;;5038820;28;20904;-76
2022/10/19 05:38:47;;;;;;;8.13;4.60;;;15.60;99.90;;;;;;5035782;28;20513;-76
2022/10/19 05:41:15;;;;;;;7.33;3.93;;;15.60;99.90;;;;;;5038777;28;20513;-76
2022/10/19 05:43:45;;;;;;;9.80;5.40;;;15.50;99.90;;;;;;5034867;28;20467;-75
2022/10/19 05:46:16;;;;;;;9.00;4.60;;;15.50;99.90;;;;;;5038429;28;20593;-75
2022/10/19 05:48:43;;;;;;;11.13;5.43;;;15.50;99.90;;;;;;5039587;28;20506;-75
2022/10/19 05:51:12;;;;;;;9.40;4.43;;;15.50;99.90;;;;;;5039644;28;20448;-75
2022/10/19 05:53:40;;;;;;;8.23;4.13;;;15.40;99.90;;;;;;5034555;28;20460;-75
2022/10/19 05:56:13;;;;;;;5.77;3.27;;;15.40;99.90;;;;;;5038203;28;20522;-75
2022/10/19 05:58:41;;;;;;;6.77;3.70;;;15.50;99.90;;;;;;5034941;28;20816;-76
2022/10/19 06:01:08;;;;;;;7.20;4.53;;;15.50;99.90;;;;;;5037531;28;20440;-75
2022/10/19 06:03:35;;;;;;;7.50;3.47;;;15.60;99.90;;;;;;5033949;28;20500;-75
2022/10/19 06:06:03;;;;;;;15.17;4.60;;;15.60;99.90;;;;;;5039724;28;20507;-76
2022/10/19 06:08:31;;;;;;;7.10;4.37;;;15.60;99.90;;;;;;5037895;28;20460;-75
2022/10/19 06:11:05;;;;;;;6.03;3.87;;;15.50;99.90;;;;;;5035374;28;20514;-75
2022/10/19 06:13:34;;;;;;;5.90;4.17;;;15.60;99.90;;;;;;5036334;28;20462;-75
2022/10/19 06:16:01;;;;;;;7.80;4.80;;;15.60;99.90;;;;;;5039244;28;20484;-75
2022/10/19 06:18:28;;;;;;;5.30;3.13;;;15.60;99.90;;;;;;5034484;28;20472;-75
2022/10/19 06:20:55;;;;;;;6.70;4.40;;;15.60;99.90;;;;;;5021782;28;20783;-74
2022/10/19 06:23:22;;;;;;;5.80;4.17;;;15.60;99.90;;;;;;5033780;28;20514;-77
2022/10/19 06:25:49;;;;;;;5.57;3.50;;;15.70;99.90;;;;;;5037919;28;20452;-77
2022/10/19 06:28:16;;;;;;;7.40;3.87;;;15.80;99.90;;;;;;5032575;28;20463;-78
2022/10/19 06:30:45;;;;;;;7.40;4.27;;;15.70;99.90;;;;;;5038782;28;20440;-78
2022/10/19 06:33:12;;;;;;;8.33;4.73;;;15.60;99.90;;;;;;5023804;28;20901;-78
2022/10/19 06:35:41;;;;;;;5.83;4.00;;;15.60;99.90;;;;;;5016403;28;20489;-78
2022/10/19 06:38:12;;;;;;;6.27;4.07;;;15.50;99.90;;;;;;5033937;28;20457;-78
2022/10/19 06:40:43;;;;;;;7.20;4.73;;;15.60;99.90;;;;;;5031178;28;20741;-77
2022/10/19 06:43:11;;;;;;;5.10;3.03;;;15.70;99.90;;;;;;5039723;28;20759;-77
2022/10/19 06:45:42;;;;;;;11.30;4.00;;;15.80;99.90;;;;;;5020783;28;20463;-76
2022/10/19 06:48:15;;;;;;;4.90;3.23;;;15.80;99.90;;;;;;5035240;28;20523;-77
2022/10/19 06:50:43;;;;;;;5.50;2.67;;;15.80;99.90;;;;;;5039448;28;20750;-77
2022/10/19 06:53:22;;;;;;;5.43;3.20;;;15.70;99.90;;;;;;5034180;28;20471;-75
2022/10/19 06:55:50;;;;;;;6.30;3.70;;;15.80;99.90;;;;;;5037996;28;20522;-76
2022/10/19 06:58:18;;;;;;;5.20;2.50;;;15.90;99.90;;;;;;5034423;28;20456;-77
2022/10/19 07:00:46;;;;;;;6.20;3.50;;;15.90;99.90;;;;;;5018329;28;20931;-76
2022/10/19 07:03:15;;;;;;;5.20;2.97;;;15.90;99.90;;;;;;5022790;28;20464;-74
2022/10/19 07:05:42;;;;;;;4.60;3.23;;;15.90;99.90;;;;;;5037406;28;20440;-75
2022/10/19 07:08:09;;;;;;;5.53;2.97;;;16.00;99.90;;;;;;5027092;28;20456;-76
2022/10/19 07:10:37;;;;;;;3.40;2.33;;;16.10;99.90;;;;;;5027581;28;21118;-76
2022/10/19 07:13:06;;;;;;;8.40;3.20;;;16.10;99.90;;;;;;5033891;28;20530;-78
2022/10/19 07:15:34;;;;;;;5.90;3.93;;;16.20;99.90;;;;;;5007808;28;20557;-77
2022/10/19 07:18:00;;;;;;;4.43;3.37;;;16.20;99.90;;;;;;4996351;28;20512;-77
2022/10/19 07:20:29;;;;;;;4.80;3.30;;;16.10;99.90;;;;;;4994924;28;20466;-77
2022/10/19 07:22:56;;;;;;;6.60;3.10;;;16.10;99.90;;;;;;5003648;28;20449;-78
2022/10/19 07:25:23;;;;;;;7.10;3.53;;;16.10;99.90;;;;;;4999476;28;20544;-76
2022/10/19 07:27:50;;;;;;;4.43;2.40;;;16.10;99.90;;;;;;4999774;28;20453;-77
2022/10/19 07:30:17;;;;;;;5.27;2.50;;;16.10;99.90;;;;;;5014658;28;20816;-77
2022/10/19 07:32:44;;;;;;;3.10;2.60;;;16.10;99.90;;;;;;5003740;28;20454;-76
2022/10/19 07:35:11;;;;;;;5.13;3.63;;;16.20;99.90;;;;;;4993600;28;20466;-76
2022/10/19 07:37:40;;;;;;;4.20;3.33;;;16.20;99.90;;;;;;4979283;28;20479;-76
2022/10/19 07:40:08;;;;;;;3.93;3.03;;;16.20;99.90;;;;;;4994930;28;20454;-76
2022/10/19 07:42:36;;;;;;;5.03;3.17;;;16.20;99.90;;;;;;4998005;28;20477;-76
2022/10/19 07:45:04;;;;;;;3.57;2.67;;;16.20;99.90;;;;;;4993791;28;20462;-76
2022/10/19 07:47:32;;;;;;;8.33;3.30;;;16.20;99.90;;;;;;4994135;28;20925;-76
2022/10/19 07:49:59;;;;;;;7.10;2.40;;;16.30;99.90;;;;;;4991738;28;20893;-76
2022/10/19 07:52:26;;;;;;;2.03;1.40;;;16.30;99.90;;;;;;5015367;28;20449;-76
2022/10/19 07:54:55;;;;;;;4.00;1.60;;;16.30;99.90;;;;;;5004758;28;20759;-76
2022/10/19 07:57:22;;;;;;;2.93;1.50;;;16.30;99.90;;;;;;5016227;28;20548;-76
2022/10/19 07:59:51;;;;;;;2.88;1.85;;;16.40;99.90;;;;;;5002617;28;20551;-76
2022/10/19 08:02:19;;;;;;;2.27;1.30;;;16.50;99.90;;;;;;5004759;28;20203;-76
2022/10/19 08:04:46;;;;;;;4.10;2.00;;;16.40;99.90;;;;;;5005608;28;20457;-76
2022/10/19 08:07:13;;;;;;;3.17;1.47;;;16.30;99.90;;;;;;5010257;28;20477;-76
2022/10/19 08:09:40;;;;;;;4.30;1.40;;;16.30;99.90;;;;;;4993402;28;20545;-76
2022/10/19 08:12:08;;;;;;;4.83;2.43;;;16.40;99.90;;;;;;4999884;28;20449;-76
2022/10/19 08:14:35;;;;;;;1.83;1.10;;;16.60;99.90;;;;;;5022783;28;21177;-76
2022/10/19 08:17:03;;;;;;;3.60;2.33;;;16.60;99.90;;;;;;5032662;28;20487;-76
2022/10/19 08:19:33;;;;;;;4.07;1.83;;;16.80;99.90;;;;;;5031332;28;20460;-76
2022/10/19 08:22:00;;;;;;;4.07;2.17;;;16.90;99.90;;;;;;5036185;28;20448;-76
2022/10/19 08:24:27;;;;;;;2.87;1.40;;;17.10;99.90;;;;;;5031369;28;20480;-76
2022/10/19 08:26:54;;;;;;;2.33;1.20;;;17.10;99.90;;;;;;5036370;28;20460;-76
2022/10/19 08:29:22;;;;;;;3.10;1.40;;;17.00;99.90;;;;;;5035502;28;20448;-73
2022/10/19 08:31:49;;;;;;;3.13;1.30;;;16.80;99.90;;;;;;5036790;28;20495;-74
2022/10/19 08:34:19;;;;;;;1.70;1.10;;;16.80;99.90;;;;;;5015720;28;20465;-75
2022/10/19 08:36:46;;;;;;;3.73;1.30;;;16.80;99.90;;;;;;5019106;28;20488;-76
2022/10/19 08:39:13;;;;;;;2.00;1.30;;;16.70;99.90;;;;;;5013440;28;20453;-76
2022/10/19 08:42:00;;;;;;;13.80;8.60;;;16.80;99.90;;;;;;5038118;28;20452;-75
2022/10/19 08:44:56;;;;;;;6.87;4.07;;;16.90;99.90;;;;;;5016917;28;20465;-76
2022/10/19 08:47:37;;;;;;;2.20;1.23;;;17.00;99.90;;;;;;5005896;28;20468;-76
2022/10/19 08:50:17;;;;;;;2.80;1.00;;;17.10;99.90;;;;;;5035681;28;20904;-76
2022/10/19 08:52:47;;;;;;;2.20;1.10;;;17.10;99.90;;;;;;5031219;28;20514;-76
2022/10/19 08:55:17;;;;;;;2.17;1.20;;;17.20;99.90;;;;;;5033054;28;20839;-76
2022/10/19 08:57:52;;;;;;;5.07;2.03;;;17.10;99.90;;;;;;5037087;28;20496;-76
2022/10/19 09:00:31;;;;;;;2.70;1.47;;;17.00;99.90;;;;;;5036215;28;20447;-76
2022/10/19 09:03:10;;;;;;;13.27;7.90;;;17.10;99.90;;;;;;5035688;28;20452;-76
2022/10/19 09:05:44;;;;;;;6.60;4.10;;;17.10;99.90;;;;;;5043415;28;20812;-76
2022/10/19 09:08:12;;;;;;;1.83;1.10;;;17.00;99.90;;;;;;5040904;28;20468;-76
2022/10/19 09:10:42;;;;;;;1.60;1.10;;;17.00;99.90;;;;;;5040862;28;20457;-76
2022/10/19 09:13:18;;;;;;;1.60;1.00;;;16.80;99.90;;;;;;5044261;28;20503;-77
2022/10/19 09:15:48;;;;;;;1.47;1.00;;;16.70;99.90;;;;;;5044990;28;20483;-76
2022/10/19 09:18:21;;;;;;;1.50;1.33;;;16.80;99.90;;;;;;5042166;28;20492;-77
2022/10/19 09:20:50;;;;;;;2.07;1.00;;;16.90;99.90;;;;;;5042683;28;20811;-77
2022/10/19 09:23:29;;;;;;;3.43;1.40;;;16.90;99.90;;;;;;5030266;28;20490;-77
2022/10/19 09:25:57;;;;;;;4.07;1.40;;;17.00;99.90;;;;;;5035667;28;20464;-76
2022/10/19 09:28:38;;;;;;;2.77;1.00;;;17.00;99.90;;;;;;5032323;28;20456;-76
2022/10/19 09:31:10;;;;;;;2.90;1.17;;;16.80;99.90;;;;;;5027472;28;20465;-76
2022/10/19 09:33:39;;;;;;;2.33;1.30;;;16.90;99.90;;;;;;5013892;28;20445;-76
2022/10/19 09:36:07;;;;;;;1.90;1.17;;;16.90;99.90;;;;;;5024490;28;20460;-77
2022/10/19 09:38:34;;;;;;;1.97;1.10;;;16.80;99.90;;;;;;5034987;28;20452;-76
2022/10/19 09:41:15;;;;;;;1.90;1.30;;;16.80;99.90;;;;;;5034868;28;20475;-77
2022/10/19 09:43:52;;;;;;;2.73;1.30;;;16.80;99.90;;;;;;4995515;28;20476;-76
2022/10/19 09:46:34;;;;;;;1.87;1.20;;;16.70;99.90;;;;;;5024905;28;20550;-76
2022/10/19 09:49:03;;;;;;;1.83;1.20;;;16.80;99.90;;;;;;5036208;28;20437;-74
2022/10/19 09:51:44;;;;;;;1.70;1.50;;;16.70;99.90;;;;;;5033463;28;20452;-76
2022/10/19 09:54:24;;;;;;;1.43;1.10;;;16.80;99.90;;;;;;5022136;28;20472;-77
2022/10/19 09:56:56;;;;;;;1.67;0.97;;;16.80;99.90;;;;;;5027525;28;20492;-76
2022/10/19 09:59:25;;;;;;;1.80;1.10;;;16.80;99.90;;;;;;5034076;28;20526;-75
2022/10/19 10:02:13;;;;;;;2.33;1.23;;;17.00;99.90;;;;;;5033346;28;20466;-76
2022/10/19 10:04:40;;;;;;;1.60;1.10;;;17.00;99.90;;;;;;5030830;28;20521;-76
2022/10/19 10:07:07;;;;;;;1.50;0.90;;;17.00;99.90;;;;;;5031667;28;20888;-76
2022/10/19 10:09:40;;;;;;;1.70;1.10;;;17.10;99.90;;;;;;5032395;28;20919;-76
2022/10/19 10:12:07;;;;;;;1.50;1.00;;;17.10;99.90;;;;;;5031903;28;20494;-76
2022/10/19 10:14:38;;;;;;;1.73;1.00;;;17.00;99.90;;;;;;4998287;28;332713;-76
2022/10/19 10:17:12;;;;;;;2.13;1.63;;;17.00;99.90;;;;;;5011237;28;20545;-76
2022/10/19 10:19:51;;;;;;;3.13;1.00;;;16.90;99.90;;;;;;5017310;28;20457;-76
2022/10/19 10:22:26;;;;;;;1.97;1.00;;;17.00;99.90;;;;;;5014677;28;20448;-75
2022/10/19 10:24:55;;;;;;;1.27;0.90;;;16.80;99.90;;;;;;5017269;28;20445;-76
2022/10/19 10:27:31;;;;;;;1.00;0.80;;;16.80;99.90;;;;;;5017449;28;20526;-75
2022/10/19 10:29:59;;;;;;;1.47;1.00;;;16.80;99.90;;;;;;5037674;28;20463;-75
2022/10/19 10:32:29;;;;;;;1.00;0.80;;;16.80;99.90;;;;;;5037293;28;20880;-75
2022/10/19 10:35:01;;;;;;;1.50;0.97;;;16.70;99.90;;;;;;5038438;28;20553;-75
2022/10/19 10:37:38;;;;;;;1.10;0.70;;;16.80;99.90;;;;;;5038060;28;20488;-75
2022/10/19 10:40:15;;;;;;;1.30;0.77;;;16.90;99.90;;;;;;5037985;28;20884;-75
2022/10/19 10:42:44;;;;;;;1.20;0.80;;;17.00;99.90;;;;;;5035688;28;20467;-76
2022/10/19 10:45:19;;;;;;;1.47;1.00;;;17.10;99.90;;;;;;5027438;28;20729;-76
2022/10/19 10:47:48;;;;;;;1.20;1.00;;;17.10;99.90;;;;;;5036114;28;20452;-75
2022/10/19 10:50:23;;;;;;;1.17;1.00;;;17.10;99.90;;;;;;5037340;28;20879;-75
2022/10/19 10:53:30;;;;;;;1.60;1.00;;;17.00;99.90;;;;;;5035381;28;20451;-75
2022/10/19 10:55:57;;;;;;;1.10;0.80;;;17.00;99.90;;;;;;5035426;28;20448;-76
2022/10/19 10:58:34;;;;;;;1.17;0.80;;;17.00;99.90;;;;;;5022427;28;20492;-75
2022/10/19 11:01:11;;;;;;;1.43;0.93;;;17.00;99.90;;;;;;5019757;28;20930;-76
2022/10/19 11:03:46;;;;;;;1.17;0.73;;;17.10;99.90;;;;;;5034340;28;20517;-76
2022/10/19 11:06:13;;;;;;;0.97;0.60;;;17.10;99.90;;;;;;5029381;28;20892;-76
2022/10/19 11:08:48;;;;;;;1.07;0.90;;;17.30;99.90;;;;;;5032607;28;20510;-76
2022/10/19 11:11:20;;;;;;;0.90;0.70;;;17.50;96.00;;;;;;5022265;28;20456;-76
2022/10/19 11:13:52;;;;;;;0.97;0.70;;;17.70;92.20;;;;;;5027915;28;20492;-76
2022/10/19 11:16:24;;;;;;;1.20;0.67;;;17.80;88.70;;;;;;5033301;28;20521;-76
2022/10/19 11:18:58;;;;;;;0.87;0.60;;;17.90;73.30;;;;;;5032250;28;20480;-77
2022/10/19 11:21:34;;;;;;;1.60;0.80;;;18.00;68.40;;;;;;5023816;28;20775;-77
2022/10/19 11:24:09;;;;;;;1.13;0.60;;;18.00;56.50;;;;;;5014775;28;20449;-77
2022/10/19 11:26:49;;;;;;;1.00;0.70;;;18.10;50.70;;;;;;5018214;28;20541;-76
2022/10/19 11:29:47;;;;;;;1.33;0.80;;;18.10;53.60;;;;;;5032570;28;20456;-77
2022/10/19 11:32:25;;;;;;;1.00;0.60;;;18.00;57.50;;;;;;5026691;28;20472;-77
2022/10/19 11:35:06;;;;;;;1.10;0.60;;;17.90;70.30;;;;;;5034208;28;20538;-77
2022/10/19 11:37:39;;;;;;;1.47;0.67;;;18.00;68.00;;;;;;5031813;28;20480;-76
2022/10/19 11:40:19;;;;;;;1.27;0.90;;;18.10;56.60;;;;;;5035172;28;20511;-77
2022/10/19 11:42:56;;;;;;;1.30;0.90;;;18.20;55.00;;;;;;5033150;28;20546;-77
2022/10/19 11:45:45;;;;;;;1.03;0.60;;;18.20;44.60;;;;;;5036020;28;20436;-77
2022/10/19 11:48:48;;;;;;;0.90;0.60;;;18.20;46.50;;;;;;5035455;28;20474;-77
2022/10/19 11:51:24;;;;;;;1.63;0.70;;;18.30;36.00;;;;;;5034215;28;20545;-77
2022/10/19 11:54:01;;;;;;;1.13;0.73;;;18.10;35.80;;;;;;5034522;28;20471;-76
2022/10/19 11:56:34;;;;;;;1.20;0.60;;;18.00;28.00;;;;;;5031849;28;20571;-77
2022/10/19 11:59:13;;;;;;;0.93;0.70;;;18.00;39.40;;;;;;5034562;28;20523;-76
2022/10/19 12:01:51;;;;;;;0.80;0.50;;;17.90;41.10;;;;;;5032412;28;20514;-77
2022/10/19 12:04:40;;;;;;;1.10;0.67;;;18.10;38.90;;;;;;5034494;28;20490;-77
2022/10/19 12:07:26;;;;;;;1.20;0.70;;;18.00;30.10;;;;;;5031887;28;20484;-77
2022/10/19 12:10:02;;;;;;;3.73;0.80;;;18.00;35.60;;;;;;5035687;28;20452;-77
2022/10/19 12:12:33;;;;;;;1.07;0.67;;;18.20;41.70;;;;;;5028642;28;20672;-76
2022/10/19 12:15:12;;;;;;;1.10;0.70;;;18.40;19.50;;;;;;5028454;28;20477;-78
2022/10/19 12:17:43;;;;;;;3.03;0.80;;;18.50;3.40;;;;;;5052490;28;20483;-76
2022/10/19 12:20:20;;;;;;;1.60;0.70;;;18.50;1.00;;;;;;5038425;28;20449;-76
2022/10/19 12:22:50;;;;;;;1.10;0.80;;;18.30;10.90;;;;;;5031013;28;20464;-78
2022/10/19 12:25:19;;;;;;;0.90;0.60;;;18.20;9.30;;;;;;5036519;28;20460;-77
2022/10/19 12:27:48;;;;;;;0.97;0.60;;;18.30;9.60;;;;;;5029560;28;20861;-76
2022/10/19 12:30:19;;;;;;;1.20;0.77;;;18.40;6.00;;;;;;5036189;28;20459;-75
2022/10/19 12:32:59;;;;;;;0.80;0.60;;;18.50;2.00;;;;;;5024681;28;20464;-75
2022/10/19 12:35:44;;;;;;;1.03;0.80;;;18.40;1.60;;;;;;5025498;28;20444;-76
2022/10/19 12:38:18;;;;;;;1.13;0.80;;;18.40;1.00;;;;;;5030358;28;20538;-76
2022/10/19 12:40:53;;;;;;;3.10;0.80;;;18.40;6.40;;;;;;5019347;28;20445;-76
2022/10/19 12:43:28;;;;;;;0.93;0.77;;;18.50;1.00;;;;;;5030390;28;20464;-76
2022/10/19 12:46:09;;;;;;;1.50;0.77;;;18.40;1.00;;;;;;5034447;28;20506;-76
2022/10/19 12:48:38;;;;;;;1.30;0.90;;;18.40;2.30;;;;;;5019584;28;20519;-76
2022/10/19 12:51:10;;;;;;;1.00;0.83;;;18.40;1.00;;;;;;5034594;28;20535;-76
2022/10/19 12:53:40;;;;;;;1.00;0.60;;;18.50;3.80;;;;;;5032905;28;20487;-76
2022/10/19 12:56:11;;;;;;;1.00;0.60;;;18.40;5.20;;;;;;5032609;28;20452;-76
2022/10/19 12:58:45;;;;;;;2.80;1.00;;;18.60;4.60;;;;;;5033686;28;20491;-75
2022/10/19 13:01:18;;;;;;;3.13;1.60;;;18.60;1.00;;;;;;5030388;28;20571;-76
2022/10/19 13:03:46;;;;;;;1.90;0.80;;;18.60;1.00;;;;;;5036124;28;20815;-76
2022/10/19 13:06:31;;;;;;;1.23;0.70;;;18.50;1.00;;;;;;5032153;28;20571;-75